メインページ
METAR-TAF:

METAR-TAF

空港 :

ベルリン, ドイツ

ベルリン・テーゲル空港

緯度: 52-34N, 経度: 013-19E, 海抜: 37m

現時点の気象観測

当レポートは18分前の15:20(UTC)に作成
西の風 10kt、西/南西から北西の間で変化する
気温 19°C
湿度 73%
気圧 1009 hPa
視程10km以上
高度2500ftの雲はほとんどない
高度6000ftの千切れ雲あり

METAR: EDDT 251520Z 28010KT 250V310 9999 FEW025 BKN060 19/14 Q1009 NOSIG

時間: 17:38 (15:38 UTC)

予報

当レポートは4時間38分前の11:00(UTC)に作成
予報は25日の 12時(UTC)から 26日の 12時(UTC)まで有効
西の風 12kt
視程10km以上
高度3500ftの雲は散在している
25日の 12時(UTC)から 25日の 16時(UTC)まで一時的に
西の風 15kt、最大25ktの突風を伴う
視程: 4500m
高度2500ftの千切れ雲あり, 塔状積雲.
弱いにわか雨
25日の 17時(UTC)から 25日の 19時(UTC)まで徐々に
西の風 7kt
26日の 06時(UTC)から 26日の 08時(UTC)まで徐々に
西の風 12kt
確率 30% :
26日の 09時(UTC)から 26日の 12時(UTC)まで一時的に
西/北西の風 15kt、最大25ktの突風を伴う

TAF: EDDT 251100Z 2512/2612 27012KT 9999 SCT035 TEMPO 2512/2516 28015G25KT 4500 -SHRA BKN025TCU BECMG 2517/2519 26007KT BECMG 2606/2608 28012KT PROB30 TEMPO 2609/2612 29015G25KT

4,000以上の空港の気象観測と天気予報(METAR報とTAF報)

利用可能な観測所は地図上に黄色い丸と赤い丸で示す。

丸の上にカーソルを重ねると観測所名を参照できる。

次にクリックすると気象観測と天気予報を参照できる。

マップの切り替え:黒色「×」印の緑ボタンをクリックして拡大、「-」印の緑ボタンをクリックして縮小、緑色の三角印をクリックして隣りの地図に切り替え


METAR-TAF: